Terminal Aerodrome Forecast
Issued by NWS Bismarck, ND

Home | Current Version | Previous Version | Text Only | Print | Product List | Glossary On
Versions: 1 2 3 4 5 6 7 8 9 10 11 12 13 14 15 16 17 18 19 20 21 22 23 24
000
FTUS43 KBIS 222300
TAFISN
TAF
KISN 222320Z 2300/2324 VRB05KT P6SM VCTS BKN060CB
     FM230300 VRB05KT P6SM SCT060
     FM231500 14015KT P6SM SCT060=

USA.gov is the U.S. government's official web portal to all federal, state and local government web resources and services.